createdAt,value
2022-09-26T00:01:34.178Z,94.80
2022-09-26T00:04:06.485Z,94.80
2022-09-26T00:06:33.420Z,94.80
2022-09-26T00:09:00.434Z,94.90
2022-09-26T00:11:30.493Z,94.90
2022-09-26T00:14:00.735Z,94.90
2022-09-26T00:16:28.298Z,94.90
2022-09-26T00:18:56.946Z,94.90
2022-09-26T00:21:25.195Z,94.80
2022-09-26T00:23:53.615Z,94.70
2022-09-26T00:26:22.492Z,94.70
2022-09-26T00:28:49.443Z,94.80
2022-09-26T00:31:32.946Z,94.80
2022-09-26T00:34:00.046Z,94.90
2022-09-26T00:36:37.423Z,94.90
2022-09-26T00:39:07.958Z,95.00
2022-09-26T00:41:36.068Z,95.10
2022-09-26T00:44:23.582Z,95.20
2022-09-26T00:46:51.421Z,95.20
2022-09-26T00:49:26.724Z,95.30
2022-09-26T00:52:08.600Z,95.30
2022-09-26T00:54:38.756Z,95.30
2022-09-26T00:57:14.314Z,95.30
2022-09-26T00:59:49.679Z,95.20
2022-09-26T01:02:18.049Z,95.20
2022-09-26T01:04:48.426Z,95.20
2022-09-26T01:07:19.968Z,95.20
2022-09-26T01:09:48.097Z,95.20
2022-09-26T01:12:16.878Z,95.20
2022-09-26T01:14:46.885Z,95.20
2022-09-26T01:17:14.924Z,95.20
2022-09-26T01:20:09.326Z,95.20
2022-09-26T01:22:57.963Z,95.20
2022-09-26T01:25:52.202Z,95.20
2022-09-26T01:28:34.413Z,95.20
2022-09-26T01:31:14.643Z,95.20
2022-09-26T01:33:51.361Z,95.00
2022-09-26T01:36:38.516Z,94.90
2022-09-26T01:39:26.737Z,94.90
2022-09-26T01:41:53.940Z,94.90
2022-09-26T01:44:46.424Z,94.90
2022-09-26T01:47:44.111Z,95.00
2022-09-26T01:50:50.459Z,95.10
2022-09-26T01:53:31.376Z,95.00
2022-09-26T01:56:12.157Z,94.90
2022-09-26T01:58:47.343Z,94.90
2022-09-26T02:01:16.899Z,94.90
2022-09-26T02:03:49.787Z,95.00
2022-09-26T02:06:23.121Z,95.00
2022-09-26T02:08:58.459Z,95.00
2022-09-26T02:11:26.462Z,94.80
2022-09-26T02:14:07.204Z,94.80
2022-09-26T02:16:46.796Z,94.80
2022-09-26T02:19:32.838Z,94.80
2022-09-26T02:22:01.403Z,94.90
2022-09-26T02:24:29.149Z,94.90
2022-09-26T02:26:56.840Z,94.90
2022-09-26T02:29:25.397Z,94.90
2022-09-26T02:32:00.344Z,95.00
2022-09-26T02:34:27.642Z,94.90
2022-09-26T02:36:57.458Z,94.90
2022-09-26T02:39:28.106Z,95.00
2022-09-26T02:42:38.070Z,94.90
2022-09-26T02:45:25.907Z,94.90
2022-09-26T02:48:05.671Z,95.00
2022-09-26T02:51:14.241Z,95.00
2022-09-26T02:54:06.391Z,95.10
2022-09-26T02:57:07.126Z,95.10
2022-09-26T03:00:03.876Z,95.10
2022-09-26T03:02:40.681Z,95.20
2022-09-26T03:05:22.027Z,95.20
2022-09-26T03:08:04.869Z,95.10
2022-09-26T03:10:33.105Z,95.20
2022-09-26T03:13:13.274Z,95.20
2022-09-26T03:15:45.320Z,95.20
2022-09-26T03:18:19.264Z,95.20
2022-09-26T03:20:46.877Z,95.30
2022-09-26T03:23:13.854Z,95.30
2022-09-26T03:25:44.546Z,95.40
2022-09-26T03:28:14.242Z,95.40
2022-09-26T03:30:41.382Z,95.30
2022-09-26T03:33:28.491Z,95.30
2022-09-26T03:35:56.187Z,95.10
2022-09-26T03:38:23.120Z,95.10
2022-09-26T03:41:00.379Z,95.10
2022-09-26T03:43:46.207Z,95.10
2022-09-26T03:46:15.955Z,95.10
2022-09-26T03:48:43.417Z,95.20
2022-09-26T03:51:13.187Z,95.20
2022-09-26T03:53:42.640Z,95.20
2022-09-26T03:56:15.705Z,95.20
2022-09-26T03:58:43.604Z,95.20
2022-09-26T04:01:13.619Z,95.30
2022-09-26T04:03:47.810Z,95.30
2022-09-26T04:06:20.832Z,95.30
2022-09-26T04:08:51.284Z,95.30
2022-09-26T04:11:21.498Z,95.40
2022-09-26T04:13:52.564Z,95.40
2022-09-26T04:16:23.783Z,95.40
2022-09-26T04:18:58.683Z,95.40
2022-09-26T04:21:27.613Z,95.30
2022-09-26T04:23:55.520Z,95.30
2022-09-26T04:26:24.318Z,95.40
2022-09-26T04:28:55.702Z,95.40
2022-09-26T04:31:28.032Z,95.40
2022-09-26T04:34:05.073Z,95.30
2022-09-26T04:36:32.689Z,95.20
2022-09-26T04:39:00.768Z,95.10
2022-09-26T04:41:29.921Z,95.20
2022-09-26T04:43:58.888Z,95.20
2022-09-26T04:46:30.731Z,95.10
2022-09-26T04:49:00.608Z,95.10
2022-09-26T04:51:29.602Z,95.10
2022-09-26T04:53:56.680Z,95.20
2022-09-26T04:56:29.296Z,95.30
2022-09-26T04:58:58.116Z,95.30
2022-09-26T05:01:28.418Z,95.30
2022-09-26T05:04:07.294Z,95.20
2022-09-26T05:06:34.612Z,95.10
2022-09-26T05:09:04.336Z,95.10
2022-09-26T05:11:46.491Z,95.10
2022-09-26T05:14:14.439Z,95.10
2022-09-26T05:16:41.723Z,95.20
2022-09-26T05:19:12.881Z,95.30
2022-09-26T05:21:51.189Z,95.30
2022-09-26T05:24:36.585Z,95.40
2022-09-26T05:27:06.962Z,95.50
2022-09-26T05:29:34.979Z,95.50
2022-09-26T05:32:04.958Z,95.50
2022-09-26T05:34:36.935Z,95.40
2022-09-26T05:37:05.426Z,95.30
2022-09-26T05:39:51.666Z,95.30
2022-09-26T05:42:19.844Z,95.30
2022-09-26T05:44:47.254Z,95.30
2022-09-26T05:47:14.492Z,95.30
2022-09-26T05:49:41.562Z,95.30
2022-09-26T05:52:12.243Z,95.30
2022-09-26T05:54:39.205Z,95.20
2022-09-26T05:57:26.096Z,95.20
2022-09-26T05:59:55.172Z,95.10
2022-09-26T06:02:25.133Z,95.10
2022-09-26T06:05:18.219Z,95.10
2022-09-26T06:08:09.976Z,95.20
2022-09-26T06:10:45.696Z,95.30
2022-09-26T06:13:15.402Z,95.40
2022-09-26T06:15:50.042Z,95.40
2022-09-26T06:18:17.354Z,95.40
2022-09-26T06:20:44.360Z,95.50
2022-09-26T06:23:12.871Z,95.50
2022-09-26T06:25:41.013Z,95.50
2022-09-26T06:28:07.921Z,95.50
2022-09-26T06:30:37.913Z,95.50
2022-09-26T06:33:13.934Z,95.50
2022-09-26T06:36:10.591Z,95.40
2022-09-26T06:38:38.741Z,95.30
2022-09-26T06:41:13.979Z,95.30
2022-09-26T06:43:40.991Z,95.20
2022-09-26T06:46:37.340Z,95.10
2022-09-26T06:49:13.108Z,95.00
2022-09-26T06:51:49.144Z,94.90
2022-09-26T06:54:17.524Z,94.90
2022-09-26T06:56:44.748Z,94.80
2022-09-26T06:59:12.252Z,94.80
2022-09-26T07:01:48.662Z,94.80
2022-09-26T07:04:36.018Z,94.70
2022-09-26T07:07:17.710Z,94.60
2022-09-26T07:09:44.841Z,94.50
2022-09-26T07:12:37.674Z,94.50
2022-09-26T07:15:05.047Z,94.40
2022-09-26T07:17:33.026Z,94.30
2022-09-26T07:20:18.789Z,94.30
2022-09-26T07:22:55.144Z,94.20
2022-09-26T07:25:22.255Z,94.10
2022-09-26T07:27:52.060Z,94.10
2022-09-26T07:30:24.612Z,94.00
2022-09-26T07:33:04.649Z,93.90
2022-09-26T07:35:44.455Z,93.80
2022-09-26T07:38:13.144Z,93.70
2022-09-26T07:40:42.893Z,93.50
2022-09-26T07:43:19.676Z,93.30
2022-09-26T07:46:10.263Z,93.20
2022-09-26T07:48:57.529Z,92.90
2022-09-26T07:51:43.192Z,92.50
2022-09-26T07:54:15.415Z,92.30
2022-09-26T07:56:55.244Z,91.90
2022-09-26T07:59:40.719Z,91.60
2022-09-26T08:02:25.758Z,91.20
2022-09-26T08:04:58.782Z,91.30
2022-09-26T08:07:27.904Z,91.20
2022-09-26T08:10:06.169Z,90.80
2022-09-26T08:12:51.656Z,90.00
2022-09-26T08:15:36.284Z,89.00
2022-09-26T08:18:08.959Z,88.70
2022-09-26T08:20:37.184Z,87.80
2022-09-26T08:23:04.220Z,87.10
2022-09-26T08:25:31.161Z,86.30
2022-09-26T08:28:05.972Z,85.70
2022-09-26T08:30:33.362Z,85.20
2022-09-26T08:33:04.613Z,84.20
2022-09-26T08:35:38.540Z,83.10
2022-09-26T08:38:23.979Z,82.70
2022-09-26T08:42:02.061Z,82.80
2022-09-26T08:45:42.058Z,82.40
2022-09-26T08:48:45.710Z,82.60
2022-09-26T08:51:31.544Z,82.10
2022-09-26T08:54:11.814Z,81.40
2022-09-26T08:56:47.143Z,81.50
2022-09-26T08:59:40.617Z,81.00
2022-09-26T09:02:23.023Z,80.00
2022-09-26T09:05:23.485Z,78.90
2022-09-26T09:07:55.614Z,77.50
2022-09-26T09:10:55.494Z,76.20
2022-09-26T09:13:43.738Z,76.20
2022-09-26T09:16:40.341Z,76.10
2022-09-26T09:19:48.855Z,75.80
2022-09-26T09:23:09.623Z,74.90
2022-09-26T09:25:55.305Z,75.10
2022-09-26T09:28:34.706Z,75.30
2022-09-26T09:31:06.508Z,75.00
2022-09-26T09:33:45.486Z,74.30
2022-09-26T09:36:41.729Z,73.40
2022-09-26T09:39:40.371Z,73.90
2022-09-26T09:42:40.607Z,73.10
2022-09-26T09:45:12.413Z,72.60
2022-09-26T09:47:40.132Z,73.10
2022-09-26T09:50:30.662Z,73.50
2022-09-26T09:53:16.488Z,74.10
2022-09-26T09:55:55.589Z,74.30
2022-09-26T09:59:03.650Z,73.50
2022-09-26T10:01:42.313Z,72.70
2022-09-26T10:04:59.198Z,72.80
2022-09-26T10:07:27.233Z,73.10
2022-09-26T10:10:28.189Z,72.30
2022-09-26T10:13:35.844Z,72.20
2022-09-26T10:16:21.694Z,72.60
2022-09-26T10:19:07.996Z,72.70
2022-09-26T10:21:41.751Z,72.70
2022-09-26T10:24:24.139Z,73.30
2022-09-26T10:26:56.883Z,73.70
2022-09-26T10:29:35.900Z,73.80
2022-09-26T10:32:03.538Z,73.50
2022-09-26T10:34:34.424Z,72.90
2022-09-26T10:37:24.543Z,71.40
2022-09-26T10:40:20.509Z,71.30
2022-09-26T10:42:47.987Z,70.40
2022-09-26T10:45:20.366Z,69.20
2022-09-26T10:48:07.011Z,68.30
2022-09-26T10:51:00.554Z,66.80
2022-09-26T10:53:56.956Z,66.90
2022-09-26T10:56:28.648Z,66.80
2022-09-26T10:58:59.495Z,67.10
2022-09-26T11:01:31.308Z,65.70
2022-09-26T11:04:12.142Z,65.50
2022-09-26T11:07:27.909Z,65.20
2022-09-26T11:10:14.807Z,63.60
2022-09-26T11:12:58.144Z,60.90
2022-09-26T11:15:26.486Z,62.50
2022-09-26T11:17:55.589Z,63.50
2022-09-26T11:20:25.603Z,64.20
2022-09-26T11:23:07.861Z,63.50
2022-09-26T11:25:58.307Z,62.60
2022-09-26T11:28:34.406Z,62.00
2022-09-26T11:31:30.577Z,61.20
2022-09-26T11:34:26.327Z,61.20
2022-09-26T11:37:42.234Z,61.00
2022-09-26T11:40:37.284Z,59.80
2022-09-26T11:43:35.379Z,60.50
2022-09-26T11:46:35.408Z,60.20
2022-09-26T11:49:32.029Z,59.60
2022-09-26T11:52:48.268Z,59.50
2022-09-26T11:55:37.616Z,58.70
2022-09-26T11:58:15.762Z,58.90
2022-09-26T12:01:08.150Z,59.40
2022-09-26T12:03:36.161Z,60.20
2022-09-26T12:06:20.999Z,59.60
2022-09-26T12:09:14.284Z,59.50
2022-09-26T12:11:45.725Z,59.60
2022-09-26T12:14:52.533Z,58.80
2022-09-26T12:17:35.135Z,59.60
2022-09-26T12:20:26.707Z,59.10
2022-09-26T12:23:31.381Z,59.10
2022-09-26T12:26:36.709Z,59.10
2022-09-26T12:29:40.688Z,59.00
2022-09-26T12:32:07.660Z,59.50
2022-09-26T12:35:07.256Z,59.30
2022-09-26T12:38:00.171Z,58.60
2022-09-26T12:40:37.162Z,57.70
2022-09-26T12:43:13.982Z,59.10
2022-09-26T12:45:42.291Z,58.30
2022-09-26T12:48:35.001Z,58.40
2022-09-26T12:51:40.252Z,58.80
2022-09-26T12:54:41.640Z,57.70
2022-09-26T12:57:43.137Z,59.40
2022-09-26T13:00:21.568Z,58.90
2022-09-26T13:03:18.910Z,58.20
2022-09-26T13:06:25.475Z,58.60
2022-09-26T13:09:20.451Z,59.00
2022-09-26T13:12:17.631Z,59.50
2022-09-26T13:15:18.709Z,57.80
2022-09-26T13:17:52.272Z,58.50
2022-09-26T13:20:41.227Z,58.80
2022-09-26T13:23:17.040Z,58.60
2022-09-26T13:25:55.640Z,58.90
2022-09-26T13:28:37.879Z,59.10
2022-09-26T13:31:20.284Z,58.60
2022-09-26T13:34:04.105Z,58.40
2022-09-26T13:36:33.954Z,58.70
2022-09-26T13:39:17.678Z,59.10
2022-09-26T13:42:15.175Z,59.30
2022-09-26T13:44:58.877Z,60.10
2022-09-26T13:47:50.705Z,59.50
2022-09-26T13:50:56.021Z,59.70
2022-09-26T13:53:40.642Z,59.80
2022-09-26T13:56:30.452Z,59.20
2022-09-26T13:59:04.757Z,59.00
2022-09-26T14:01:33.659Z,59.20
2022-09-26T14:04:20.641Z,59.10
2022-09-26T14:07:28.225Z,57.80
2022-09-26T14:10:01.794Z,58.70
2022-09-26T14:12:51.831Z,59.70
2022-09-26T14:15:20.957Z,60.00
2022-09-26T14:17:47.910Z,59.90
2022-09-26T14:20:52.968Z,59.90
2022-09-26T14:23:40.709Z,60.30
2022-09-26T14:26:08.945Z,60.00
2022-09-26T14:28:37.357Z,58.70
2022-09-26T14:31:19.735Z,58.50
2022-09-26T14:33:47.335Z,58.30
2022-09-26T14:36:35.346Z,59.50
2022-09-26T14:39:04.182Z,59.10
2022-09-26T14:41:34.713Z,59.90
2022-09-26T14:44:16.041Z,60.70
2022-09-26T14:46:43.725Z,60.90
2022-09-26T14:49:23.702Z,61.00
2022-09-26T14:51:56.652Z,61.20
2022-09-26T14:54:27.853Z,61.80
2022-09-26T14:57:24.024Z,61.60
2022-09-26T14:59:51.151Z,62.00
2022-09-26T15:02:38.821Z,62.30
2022-09-26T15:05:19.465Z,62.20
2022-09-26T15:07:52.314Z,62.70
2022-09-26T15:10:41.875Z,62.70
2022-09-26T15:13:08.997Z,63.30
2022-09-26T15:16:01.888Z,63.60
2022-09-26T15:18:45.285Z,63.50
2022-09-26T15:21:35.742Z,63.30
2022-09-26T15:24:26.471Z,63.60
2022-09-26T15:26:56.258Z,64.00
2022-09-26T15:29:23.490Z,63.90
2022-09-26T15:31:52.077Z,63.70
2022-09-26T15:34:23.733Z,63.90
2022-09-26T15:36:57.798Z,63.70
2022-09-26T15:39:30.938Z,63.50
2022-09-26T15:42:29.565Z,64.10
2022-09-26T15:45:01.757Z,64.50
2022-09-26T15:47:34.741Z,64.80
2022-09-26T15:50:14.368Z,64.80
2022-09-26T15:52:48.773Z,65.60
2022-09-26T15:55:23.763Z,65.90
2022-09-26T15:57:54.466Z,66.40
2022-09-26T16:00:21.566Z,66.80
2022-09-26T16:02:48.779Z,67.20
2022-09-26T16:05:16.221Z,67.50
2022-09-26T16:07:48.970Z,68.00
2022-09-26T16:10:33.371Z,68.30
2022-09-26T16:13:00.637Z,68.60
2022-09-26T16:15:30.122Z,68.80
2022-09-26T16:17:58.797Z,69.40
2022-09-26T16:20:31.469Z,69.90
2022-09-26T16:23:04.350Z,70.40
2022-09-26T16:25:35.260Z,70.60
2022-09-26T16:28:21.950Z,71.00
2022-09-26T16:31:08.583Z,71.40
2022-09-26T16:33:39.133Z,71.70
2022-09-26T16:36:24.479Z,71.80
2022-09-26T16:38:52.984Z,72.10
2022-09-26T16:41:48.941Z,72.20
2022-09-26T16:44:35.400Z,72.40
2022-09-26T16:47:05.657Z,72.90
2022-09-26T16:49:47.441Z,73.00
2022-09-26T16:52:36.463Z,73.60
2022-09-26T16:55:06.201Z,73.90
2022-09-26T16:57:38.468Z,74.00
2022-09-26T17:00:35.247Z,74.30
2022-09-26T17:03:03.386Z,74.60
2022-09-26T17:05:30.420Z,74.70
2022-09-26T17:07:57.317Z,75.10
2022-09-26T17:10:25.809Z,75.30
2022-09-26T17:12:53.582Z,75.70
2022-09-26T17:15:27.890Z,76.00
2022-09-26T17:17:56.931Z,76.20
2022-09-26T17:20:24.247Z,76.40
2022-09-26T17:22:51.378Z,76.60
2022-09-26T17:25:19.039Z,76.80
2022-09-26T17:27:50.682Z,77.10
2022-09-26T17:30:19.090Z,77.30
2022-09-26T17:32:49.962Z,77.60
2022-09-26T17:35:29.723Z,77.90
2022-09-26T17:37:56.859Z,78.40
2022-09-26T17:40:26.391Z,78.40
2022-09-26T17:42:59.279Z,78.70
2022-09-26T17:45:35.945Z,78.90
2022-09-26T17:48:10.524Z,79.40
2022-09-26T17:50:38.880Z,79.60
2022-09-26T17:53:09.287Z,79.90
2022-09-26T17:55:36.279Z,80.10
2022-09-26T17:58:09.397Z,80.40
2022-09-26T18:00:41.066Z,80.50
2022-09-26T18:03:19.055Z,80.80
2022-09-26T18:05:46.812Z,81.10
2022-09-26T18:08:19.237Z,81.30
2022-09-26T18:10:52.641Z,81.80
2022-09-26T18:13:22.813Z,81.90
2022-09-26T18:15:52.376Z,82.30
2022-09-26T18:18:21.907Z,82.50
2022-09-26T18:20:49.944Z,82.70
2022-09-26T18:23:23.295Z,83.10
2022-09-26T18:25:52.256Z,83.40
2022-09-26T18:28:22.320Z,83.80
2022-09-26T18:30:57.988Z,84.00
2022-09-26T18:33:27.876Z,84.30
2022-09-26T18:35:55.219Z,84.40
2022-09-26T18:38:22.345Z,84.60
2022-09-26T18:40:54.818Z,84.70
2022-09-26T18:43:25.104Z,85.00
2022-09-26T18:45:52.409Z,85.10
2022-09-26T18:48:29.355Z,85.30
2022-09-26T18:50:57.671Z,85.50
2022-09-26T18:53:29.480Z,85.50
2022-09-26T18:56:15.357Z,85.50
2022-09-26T18:58:42.342Z,85.50
2022-09-26T19:01:34.331Z,85.40
2022-09-26T19:04:04.711Z,85.40
2022-09-26T19:06:41.644Z,85.20
2022-09-26T19:09:14.077Z,85.10
2022-09-26T19:11:41.426Z,84.80
2022-09-26T19:14:17.794Z,84.60
2022-09-26T19:16:46.814Z,84.50
2022-09-26T19:19:14.087Z,84.50
2022-09-26T19:21:44.478Z,84.30
2022-09-26T19:24:21.173Z,84.20
2022-09-26T19:27:11.270Z,84.10
2022-09-26T19:30:03.202Z,84.10
2022-09-26T19:32:41.552Z,83.70
2022-09-26T19:35:24.386Z,83.10
2022-09-26T19:37:51.710Z,82.60
2022-09-26T19:40:21.003Z,82.30
2022-09-26T19:42:48.078Z,81.80
2022-09-26T19:45:16.017Z,81.10
2022-09-26T19:47:47.557Z,80.40
2022-09-26T19:50:25.872Z,79.70
2022-09-26T19:52:55.298Z,79.10
2022-09-26T19:55:30.343Z,78.70
2022-09-26T19:58:11.282Z,78.30
2022-09-26T20:00:41.575Z,78.30
2022-09-26T20:03:17.995Z,77.90
2022-09-26T20:05:52.227Z,77.50
2022-09-26T20:08:28.124Z,77.10
2022-09-26T20:10:56.729Z,76.50
2022-09-26T20:13:23.918Z,76.10
2022-09-26T20:15:51.169Z,75.90
2022-09-26T20:18:21.186Z,75.90
2022-09-26T20:20:53.251Z,75.70
2022-09-26T20:23:24.110Z,75.20
2022-09-26T20:25:53.454Z,74.50
2022-09-26T20:28:20.492Z,74.00
2022-09-26T20:30:54.514Z,73.60
2022-09-26T20:33:23.729Z,73.50
2022-09-26T20:36:01.689Z,73.30
2022-09-26T20:38:45.451Z,73.60
2022-09-26T20:41:27.165Z,73.70
2022-09-26T20:44:01.185Z,73.60
2022-09-26T20:46:38.096Z,73.60
2022-09-26T20:49:11.746Z,73.60
2022-09-26T20:51:38.952Z,73.70
2022-09-26T20:54:10.082Z,73.90
2022-09-26T20:56:38.852Z,74.10
2022-09-26T20:59:06.704Z,74.10
2022-09-26T21:01:33.739Z,73.70
2022-09-26T21:04:00.938Z,73.80
2022-09-26T21:06:34.024Z,74.00
2022-09-26T21:09:01.290Z,74.20
2022-09-26T21:11:28.255Z,74.50
2022-09-26T21:13:55.305Z,74.70
2022-09-26T21:16:22.684Z,74.90
2022-09-26T21:18:51.920Z,74.80
2022-09-26T21:21:24.997Z,74.80
2022-09-26T21:24:24.172Z,75.20
2022-09-26T21:26:52.195Z,75.30
2022-09-26T21:29:19.314Z,75.30
2022-09-26T21:31:50.082Z,75.30
2022-09-26T21:34:19.899Z,75.60
2022-09-26T21:36:48.161Z,75.80
2022-09-26T21:39:19.709Z,75.70
2022-09-26T21:41:50.897Z,75.50
2022-09-26T21:44:28.899Z,75.50
2022-09-26T21:46:55.998Z,75.60
2022-09-26T21:49:22.964Z,75.70
2022-09-26T21:51:54.080Z,76.10
2022-09-26T21:54:33.889Z,76.20
2022-09-26T21:57:06.633Z,76.30
2022-09-26T21:59:35.761Z,76.40
2022-09-26T22:02:02.842Z,76.50
2022-09-26T22:04:29.829Z,76.70
2022-09-26T22:06:56.790Z,77.20
2022-09-26T22:09:23.770Z,77.50
2022-09-26T22:11:50.816Z,77.80
2022-09-26T22:14:17.750Z,78.00
2022-09-26T22:16:44.731Z,78.40
2022-09-26T22:19:11.724Z,78.60
2022-09-26T22:21:38.709Z,78.70
2022-09-26T22:24:05.917Z,78.70
2022-09-26T22:26:32.990Z,78.80
2022-09-26T22:29:00.164Z,78.80
2022-09-26T22:31:27.239Z,78.70
2022-09-26T22:33:58.611Z,78.60
2022-09-26T22:36:26.501Z,78.40
2022-09-26T22:38:54.836Z,78.40
2022-09-26T22:41:21.938Z,78.40
2022-09-26T22:43:49.358Z,79.40
2022-09-26T22:46:16.532Z,78.80
2022-09-26T22:48:49.201Z,78.60
2022-09-26T22:51:17.359Z,78.70
2022-09-26T22:53:45.040Z,78.70
2022-09-26T22:56:14.969Z,78.70
2022-09-26T22:58:48.092Z,78.90
2022-09-26T23:01:18.375Z,79.30
2022-09-26T23:03:46.074Z,79.60
2022-09-26T23:06:13.146Z,80.00
2022-09-26T23:08:40.224Z,80.20
2022-09-26T23:11:08.389Z,80.50
2022-09-26T23:13:35.695Z,80.70
2022-09-26T23:16:08.052Z,80.90
2022-09-26T23:18:36.566Z,81.10
2022-09-26T23:21:07.242Z,81.30
2022-09-26T23:23:34.569Z,81.40
2022-09-26T23:26:01.850Z,81.60
2022-09-26T23:28:28.919Z,81.80
2022-09-26T23:31:03.317Z,81.70
2022-09-26T23:33:30.331Z,81.20
2022-09-26T23:35:58.402Z,81.00
2022-09-26T23:38:26.056Z,81.00
2022-09-26T23:40:53.183Z,81.30
2022-09-26T23:43:20.402Z,81.60
2022-09-26T23:45:47.572Z,81.60
2022-09-26T23:48:15.092Z,81.60
2022-09-26T23:50:45.097Z,81.30
2022-09-26T23:53:12.191Z,81.20
2022-09-26T23:55:39.163Z,81.40
2022-09-26T23:58:06.205Z,81.60
